MMTC

Francisco Sarabia International Airport

Torreón, Mexico
TAF AMD MMTC 221404Z 2214/2306 32005KT P6SM BKN020 OVC080 FM221800 02012KT P6SM BKN030 BKN250 PROB40 2222/2302 5SM -RA BKN025CB FM230500 30005KT P6SM SCT030 BKN120
Issued Valid From Valid To
Sep-22 @ 14:04 UTC
(58 minutes ago)
Sep-22 @ 14:00 UTC
(an hour ago)
Sep-23 @ 06:00 UTC
(in 15 hours)
to
to
to
to
TAF AMD MMTC 221404Z 2214/2306 32005KT P6SM BKN020 OVC080 FM221800 02012KT P6SM BKN030 BKN250 PROB40 2222/2302 5SM -RA BKN025CB FM230500 30005KT P6SM SCT030 BKN120
Issued Sep-22 @ 14:04 UTC
(58 minutes ago)
Valid From Sep-22 @ 14:00 UTC
(an hour ago)
Valid To Sep-23 @ 06:00 UTC
(in 15 hours)
-
-
-
-